sensor_id;sensor_type;location;lat;lon;timestamp;P1;durP1;ratioP1;P2;durP2;ratioP2
63902;SDS011;50072;50.678;13.938;2022-09-09T00:02:08;0.00;;;0.00;;
63902;SDS011;50072;50.678;13.938;2022-09-09T00:08:02;0.00;;;0.00;;
63902;SDS011;50072;50.678;13.938;2022-09-09T00:10:37;0.10;;;0.10;;
63902;SDS011;50072;50.678;13.938;2022-09-09T00:13:22;0.00;;;0.00;;
63902;SDS011;50072;50.678;13.938;2022-09-09T00:18:52;0.00;;;0.00;;
63902;SDS011;50072;50.678;13.938;2022-09-09T00:24:35;0.00;;;0.00;;
63902;SDS011;50072;50.678;13.938;2022-09-09T00:27:27;0.10;;;0.10;;
63902;SDS011;50072;50.678;13.938;2022-09-09T00:32:48;0.08;;;0.08;;
63902;SDS011;50072;50.678;13.938;2022-09-09T00:35:24;0.08;;;0.08;;
63902;SDS011;50072;50.678;13.938;2022-09-09T00:37:58;0.05;;;0.05;;
63902;SDS011;50072;50.678;13.938;2022-09-09T00:57:46;0.00;;;0.00;;
63902;SDS011;50072;50.678;13.938;2022-09-09T01:00:21;0.00;;;0.00;;
63902;SDS011;50072;50.678;13.938;2022-09-09T01:05:36;0.10;;;0.10;;
63902;SDS011;50072;50.678;13.938;2022-09-09T01:16:47;0.10;;;0.10;;
63902;SDS011;50072;50.678;13.938;2022-09-09T01:19:24;0.45;;;0.25;;
63902;SDS011;50072;50.678;13.938;2022-09-09T01:30:20;0.65;;;0.20;;
63902;SDS011;50072;50.678;13.938;2022-09-09T01:32:50;0.10;;;0.10;;
63902;SDS011;50072;50.678;13.938;2022-09-09T01:38:16;0.10;;;0.10;;
63902;SDS011;50072;50.678;13.938;2022-09-09T01:40:50;0.10;;;0.10;;
63902;SDS011;50072;50.678;13.938;2022-09-09T01:43:20;0.30;;;0.10;;
63902;SDS011;50072;50.678;13.938;2022-09-09T01:45:50;0.10;;;0.10;;
63902;SDS011;50072;50.678;13.938;2022-09-09T01:48:21;0.08;;;0.08;;
63902;SDS011;50072;50.678;13.938;2022-09-09T01:50:50;0.10;;;0.10;;
63902;SDS011;50072;50.678;13.938;2022-09-09T01:53:17;0.10;;;0.10;;
63902;SDS011;50072;50.678;13.938;2022-09-09T02:04:27;0.10;;;0.10;;
63902;SDS011;50072;50.678;13.938;2022-09-09T02:09:51;0.10;;;0.10;;
63902;SDS011;50072;50.678;13.938;2022-09-09T02:12:27;0.10;;;0.10;;
63902;SDS011;50072;50.678;13.938;2022-09-09T02:17:33;0.00;;;0.00;;
63902;SDS011;50072;50.678;13.938;2022-09-09T02:22:47;0.10;;;0.10;;
63902;SDS011;50072;50.678;13.938;2022-09-09T02:25:16;0.30;;;0.10;;
63902;SDS011;50072;50.678;13.938;2022-09-09T02:27:45;0.20;;;0.20;;
63902;SDS011;50072;50.678;13.938;2022-09-09T02:30:21;0.50;;;0.17;;
63902;SDS011;50072;50.678;13.938;2022-09-09T02:32:50;0.10;;;0.10;;
63902;SDS011;50072;50.678;13.938;2022-09-09T02:35:28;0.43;;;0.30;;
63902;SDS011;50072;50.678;13.938;2022-09-09T02:38:10;0.17;;;0.10;;
63902;SDS011;50072;50.678;13.938;2022-09-09T02:54:53;0.28;;;0.25;;
63902;SDS011;50072;50.678;13.938;2022-09-09T02:57:33;2.25;;;0.73;;
63902;SDS011;50072;50.678;13.938;2022-09-09T03:00:00;3.08;;;0.82;;
63902;SDS011;50072;50.678;13.938;2022-09-09T03:02:32;0.90;;;0.50;;
63902;SDS011;50072;50.678;13.938;2022-09-09T03:07:52;2.30;;;0.90;;
63902;SDS011;50072;50.678;13.938;2022-09-09T03:10:17;1.13;;;0.38;;
63902;SDS011;50072;50.678;13.938;2022-09-09T03:12:49;3.13;;;1.02;;
63902;SDS011;50072;50.678;13.938;2022-09-09T03:15:19;4.57;;;1.20;;
63902;SDS011;50072;50.678;13.938;2022-09-09T03:17:51;1.20;;;0.60;;
63902;SDS011;50072;50.678;13.938;2022-09-09T03:20:18;0.20;;;0.17;;
63902;SDS011;50072;50.678;13.938;2022-09-09T03:22:44;0.17;;;0.10;;
63902;SDS011;50072;50.678;13.938;2022-09-09T03:27:50;0.50;;;0.20;;
63902;SDS011;50072;50.678;13.938;2022-09-09T03:30:22;0.50;;;0.30;;
63902;SDS011;50072;50.678;13.938;2022-09-09T03:33:02;0.77;;;0.38;;
63902;SDS011;50072;50.678;13.938;2022-09-09T03:35:38;0.75;;;0.40;;
63902;SDS011;50072;50.678;13.938;2022-09-09T03:38:12;1.75;;;0.57;;
63902;SDS011;50072;50.678;13.938;2022-09-09T03:40:39;0.55;;;0.47;;
63902;SDS011;50072;50.678;13.938;2022-09-09T03:43:06;0.73;;;0.30;;
63902;SDS011;50072;50.678;13.938;2022-09-09T03:45:38;1.55;;;0.60;;
63902;SDS011;50072;50.678;13.938;2022-09-09T03:48:06;0.98;;;0.55;;
63902;SDS011;50072;50.678;13.938;2022-09-09T03:50:32;0.55;;;0.40;;
63902;SDS011;50072;50.678;13.938;2022-09-09T03:52:58;0.30;;;0.10;;
63902;SDS011;50072;50.678;13.938;2022-09-09T03:55:32;1.10;;;0.60;;
63902;SDS011;50072;50.678;13.938;2022-09-09T04:00:55;2.60;;;0.90;;
63902;SDS011;50072;50.678;13.938;2022-09-09T04:03:26;1.55;;;0.70;;
63902;SDS011;50072;50.678;13.938;2022-09-09T04:05:53;0.50;;;0.30;;
63902;SDS011;50072;50.678;13.938;2022-09-09T04:08:20;0.40;;;0.20;;
63902;SDS011;50072;50.678;13.938;2022-09-09T04:10:48;0.30;;;0.28;;
63902;SDS011;50072;50.678;13.938;2022-09-09T04:13:16;0.20;;;0.20;;
63902;SDS011;50072;50.678;13.938;2022-09-09T04:15:56;1.25;;;0.50;;
63902;SDS011;50072;50.678;13.938;2022-09-09T04:21:09;0.95;;;0.50;;
63902;SDS011;50072;50.678;13.938;2022-09-09T04:23:41;1.98;;;0.68;;
63902;SDS011;50072;50.678;13.938;2022-09-09T04:26:07;1.42;;;0.57;;
63902;SDS011;50072;50.678;13.938;2022-09-09T04:28:35;1.23;;;0.50;;
63902;SDS011;50072;50.678;13.938;2022-09-09T04:31:11;0.28;;;0.10;;
63902;SDS011;50072;50.678;13.938;2022-09-09T04:36:08;0.75;;;0.35;;
63902;SDS011;50072;50.678;13.938;2022-09-09T04:38:34;0.13;;;0.13;;
63902;SDS011;50072;50.678;13.938;2022-09-09T04:41:01;0.20;;;0.20;;
63902;SDS011;50072;50.678;13.938;2022-09-09T04:43:28;0.10;;;0.10;;
63902;SDS011;50072;50.678;13.938;2022-09-09T04:48:26;0.10;;;0.10;;
63902;SDS011;50072;50.678;13.938;2022-09-09T04:53:27;0.25;;;0.10;;
63902;SDS011;50072;50.678;13.938;2022-09-09T04:56:00;0.13;;;0.10;;
63902;SDS011;50072;50.678;13.938;2022-09-09T04:58:28;0.20;;;0.10;;
63902;SDS011;50072;50.678;13.938;2022-09-09T05:00:54;0.25;;;0.20;;
63902;SDS011;50072;50.678;13.938;2022-09-09T05:03:20;0.00;;;0.00;;
63902;SDS011;50072;50.678;13.938;2022-09-09T05:05:47;0.10;;;0.10;;
63902;SDS011;50072;50.678;13.938;2022-09-09T05:08:13;0.20;;;0.17;;
63902;SDS011;50072;50.678;13.938;2022-09-09T05:10:40;0.95;;;0.30;;
63902;SDS011;50072;50.678;13.938;2022-09-09T05:13:07;1.30;;;0.40;;
63902;SDS011;50072;50.678;13.938;2022-09-09T05:15:33;0.10;;;0.10;;
63902;SDS011;50072;50.678;13.938;2022-09-09T05:18:05;0.17;;;0.17;;
63902;SDS011;50072;50.678;13.938;2022-09-09T05:20:31;0.20;;;0.10;;
63902;SDS011;50072;50.678;13.938;2022-09-09T05:25:28;0.10;;;0.10;;
63902;SDS011;50072;50.678;13.938;2022-09-09T05:33:32;0.28;;;0.28;;
63902;SDS011;50072;50.678;13.938;2022-09-09T05:36:02;0.00;;;0.00;;
63902;SDS011;50072;50.678;13.938;2022-09-09T05:38:32;0.13;;;0.13;;
63902;SDS011;50072;50.678;13.938;2022-09-09T05:43:44;0.55;;;0.30;;
63902;SDS011;50072;50.678;13.938;2022-09-09T05:46:11;0.00;;;0.00;;
63902;SDS011;50072;50.678;13.938;2022-09-09T05:48:50;2.20;;;0.90;;
63902;SDS011;50072;50.678;13.938;2022-09-09T05:51:23;0.40;;;0.17;;
63902;SDS011;50072;50.678;13.938;2022-09-09T05:54:04;0.93;;;0.60;;
63902;SDS011;50072;50.678;13.938;2022-09-09T05:56:32;0.35;;;0.20;;
63902;SDS011;50072;50.678;13.938;2022-09-09T06:01:51;0.00;;;0.00;;
63902;SDS011;50072;50.678;13.938;2022-09-09T06:04:20;0.08;;;0.08;;
63902;SDS011;50072;50.678;13.938;2022-09-09T06:06:50;0.00;;;0.00;;
63902;SDS011;50072;50.678;13.938;2022-09-09T06:11:51;0.17;;;0.13;;
63902;SDS011;50072;50.678;13.938;2022-09-09T06:14:16;0.43;;;0.32;;
63902;SDS011;50072;50.678;13.938;2022-09-09T06:16:45;0.75;;;0.38;;
63902;SDS011;50072;50.678;13.938;2022-09-09T06:19:17;0.00;;;0.00;;
63902;SDS011;50072;50.678;13.938;2022-09-09T06:21:50;0.10;;;0.10;;
63902;SDS011;50072;50.678;13.938;2022-09-09T06:24:20;0.00;;;0.00;;
63902;SDS011;50072;50.678;13.938;2022-09-09T06:26:51;0.00;;;0.00;;
63902;SDS011;50072;50.678;13.938;2022-09-09T06:29:20;0.00;;;0.00;;
63902;SDS011;50072;50.678;13.938;2022-09-09T06:31:46;0.00;;;0.00;;
63902;SDS011;50072;50.678;13.938;2022-09-09T06:34:20;0.10;;;0.10;;
63902;SDS011;50072;50.678;13.938;2022-09-09T06:36:52;0.10;;;0.10;;
63902;SDS011;50072;50.678;13.938;2022-09-09T06:39:20;0.15;;;0.00;;
63902;SDS011;50072;50.678;13.938;2022-09-09T06:41:52;0.00;;;0.00;;
63902;SDS011;50072;50.678;13.938;2022-09-09T06:44:20;0.00;;;0.00;;
63902;SDS011;50072;50.678;13.938;2022-09-09T06:46:46;0.00;;;0.00;;
63902;SDS011;50072;50.678;13.938;2022-09-09T06:49:15;0.00;;;0.00;;
63902;SDS011;50072;50.678;13.938;2022-09-09T06:51:50;0.00;;;0.00;;
63902;SDS011;50072;50.678;13.938;2022-09-09T06:54:20;0.03;;;0.03;;
63902;SDS011;50072;50.678;13.938;2022-09-09T06:59:21;0.00;;;0.00;;
63902;SDS011;50072;50.678;13.938;2022-09-09T07:01:47;0.00;;;0.00;;
63902;SDS011;50072;50.678;13.938;2022-09-09T07:06:51;0.10;;;0.10;;
63902;SDS011;50072;50.678;13.938;2022-09-09T07:09:20;0.00;;;0.00;;
63902;SDS011;50072;50.678;13.938;2022-09-09T07:14:20;0.00;;;0.00;;
63902;SDS011;50072;50.678;13.938;2022-09-09T07:16:47;0.00;;;0.00;;
63902;SDS011;50072;50.678;13.938;2022-09-09T07:19:20;0.00;;;0.00;;
63902;SDS011;50072;50.678;13.938;2022-09-09T07:26:50;0.00;;;0.00;;
63902;SDS011;50072;50.678;13.938;2022-09-09T07:29:17;0.00;;;0.00;;
63902;SDS011;50072;50.678;13.938;2022-09-09T07:31:43;0.10;;;0.10;;
63902;SDS011;50072;50.678;13.938;2022-09-09T07:34:20;0.00;;;0.00;;
63902;SDS011;50072;50.678;13.938;2022-09-09T07:39:18;0.03;;;0.03;;
63902;SDS011;50072;50.678;13.938;2022-09-09T07:41:50;0.00;;;0.00;;
63902;SDS011;50072;50.678;13.938;2022-09-09T07:44:21;0.00;;;0.00;;
63902;SDS011;50072;50.678;13.938;2022-09-09T07:46:48;0.00;;;0.00;;
63902;SDS011;50072;50.678;13.938;2022-09-09T07:51:51;0.10;;;0.10;;
63902;SDS011;50072;50.678;13.938;2022-09-09T07:54:19;0.10;;;0.10;;
63902;SDS011;50072;50.678;13.938;2022-09-09T07:56:50;0.10;;;0.10;;
63902;SDS011;50072;50.678;13.938;2022-09-09T07:59:22;0.10;;;0.10;;
63902;SDS011;50072;50.678;13.938;2022-09-09T08:01:50;0.10;;;0.10;;
63902;SDS011;50072;50.678;13.938;2022-09-09T08:04:20;0.00;;;0.00;;
63902;SDS011;50072;50.678;13.938;2022-09-09T08:06:51;0.00;;;0.00;;
63902;SDS011;50072;50.678;13.938;2022-09-09T08:09:32;0.00;;;0.00;;
63902;SDS011;50072;50.678;13.938;2022-09-09T08:12:04;0.00;;;0.00;;
63902;SDS011;50072;50.678;13.938;2022-09-09T08:14:33;0.00;;;0.00;;
63902;SDS011;50072;50.678;13.938;2022-09-09T08:17:02;0.00;;;0.00;;
63902;SDS011;50072;50.678;13.938;2022-09-09T08:19:30;0.10;;;0.10;;
63902;SDS011;50072;50.678;13.938;2022-09-09T08:21:59;0.10;;;0.10;;
63902;SDS011;50072;50.678;13.938;2022-09-09T08:24:28;0.00;;;0.00;;
63902;SDS011;50072;50.678;13.938;2022-09-09T08:26:54;0.10;;;0.10;;
63902;SDS011;50072;50.678;13.938;2022-09-09T08:29:22;0.10;;;0.10;;
63902;SDS011;50072;50.678;13.938;2022-09-09T08:31:55;0.00;;;0.00;;
63902;SDS011;50072;50.678;13.938;2022-09-09T08:34:23;0.00;;;0.00;;
63902;SDS011;50072;50.678;13.938;2022-09-09T08:36:52;0.00;;;0.00;;
63902;SDS011;50072;50.678;13.938;2022-09-09T08:39:19;0.00;;;0.00;;
63902;SDS011;50072;50.678;13.938;2022-09-09T08:52:12;0.10;;;0.10;;
63902;SDS011;50072;50.678;13.938;2022-09-09T08:54:44;0.10;;;0.10;;
63902;SDS011;50072;50.678;13.938;2022-09-09T08:57:20;0.00;;;0.00;;
63902;SDS011;50072;50.678;13.938;2022-09-09T08:59:52;0.00;;;0.00;;
63902;SDS011;50072;50.678;13.938;2022-09-09T09:02:40;0.00;;;0.00;;
63902;SDS011;50072;50.678;13.938;2022-09-09T09:13:01;0.10;;;0.10;;
63902;SDS011;50072;50.678;13.938;2022-09-09T09:15:33;0.00;;;0.00;;
63902;SDS011;50072;50.678;13.938;2022-09-09T09:18:05;0.10;;;0.10;;
63902;SDS011;50072;50.678;13.938;2022-09-09T09:20:37;0.05;;;0.05;;
63902;SDS011;50072;50.678;13.938;2022-09-09T09:23:25;0.10;;;0.10;;
63902;SDS011;50072;50.678;13.938;2022-09-09T09:25:58;0.00;;;0.00;;
63902;SDS011;50072;50.678;13.938;2022-09-09T09:28:30;0.10;;;0.10;;
63902;SDS011;50072;50.678;13.938;2022-09-09T09:31:08;0.00;;;0.00;;
63902;SDS011;50072;50.678;13.938;2022-09-09T09:33:49;0.00;;;0.00;;
63902;SDS011;50072;50.678;13.938;2022-09-09T09:36:18;0.00;;;0.00;;
63902;SDS011;50072;50.678;13.938;2022-09-09T09:38:58;0.00;;;0.00;;
63902;SDS011;50072;50.678;13.938;2022-09-09T09:41:33;0.00;;;0.00;;
63902;SDS011;50072;50.678;13.938;2022-09-09T09:44:02;0.00;;;0.00;;
63902;SDS011;50072;50.678;13.938;2022-09-09T09:46:30;0.00;;;0.00;;
63902;SDS011;50072;50.678;13.938;2022-09-09T09:48:56;0.00;;;0.00;;
63902;SDS011;50072;50.678;13.938;2022-09-09T09:51:31;0.00;;;0.00;;
63902;SDS011;50072;50.678;13.938;2022-09-09T09:54:09;0.00;;;0.00;;
63902;SDS011;50072;50.678;13.938;2022-09-09T09:56:39;0.00;;;0.00;;
63902;SDS011;50072;50.678;13.938;2022-09-09T09:59:19;0.00;;;0.00;;
63902;SDS011;50072;50.678;13.938;2022-09-09T10:01:46;0.00;;;0.00;;
63902;SDS011;50072;50.678;13.938;2022-09-09T10:04:16;0.00;;;0.00;;
63902;SDS011;50072;50.678;13.938;2022-09-09T10:06:46;0.00;;;0.00;;
63902;SDS011;50072;50.678;13.938;2022-09-09T10:09:45;0.00;;;0.00;;
63902;SDS011;50072;50.678;13.938;2022-09-09T10:29:20;0.00;;;0.00;;
63902;SDS011;50072;50.678;13.938;2022-09-09T10:37:02;0.00;;;0.00;;
63902;SDS011;50072;50.678;13.938;2022-09-09T10:39:43;0.00;;;0.00;;
63902;SDS011;50072;50.678;13.938;2022-09-09T10:42:12;0.00;;;0.00;;
63902;SDS011;50072;50.678;13.938;2022-09-09T10:47:15;0.00;;;0.00;;
63902;SDS011;50072;50.678;13.938;2022-09-09T10:55:24;0.00;;;0.00;;
63902;SDS011;50072;50.678;13.938;2022-09-09T10:57:57;0.00;;;0.00;;
63902;SDS011;50072;50.678;13.938;2022-09-09T11:00:24;0.00;;;0.00;;
63902;SDS011;50072;50.678;13.938;2022-09-09T11:05:42;0.00;;;0.00;;
63902;SDS011;50072;50.678;13.938;2022-09-09T11:08:21;0.00;;;0.00;;
63902;SDS011;50072;50.678;13.938;2022-09-09T11:16:05;0.00;;;0.00;;
63902;SDS011;50072;50.678;13.938;2022-09-09T11:22:00;0.00;;;0.00;;
63902;SDS011;50072;50.678;13.938;2022-09-09T11:35:47;0.00;;;0.00;;
63902;SDS011;50072;50.678;13.938;2022-09-09T11:41:39;0.00;;;0.00;;
63902;SDS011;50072;50.678;13.938;2022-09-09T11:44:11;0.00;;;0.00;;
63902;SDS011;50072;50.678;13.938;2022-09-09T11:46:43;0.00;;;0.00;;
63902;SDS011;50072;50.678;13.938;2022-09-09T11:49:29;0.00;;;0.00;;
63902;SDS011;50072;50.678;13.938;2022-09-09T11:52:22;0.00;;;0.00;;
63902;SDS011;50072;50.678;13.938;2022-09-09T11:55:08;0.00;;;0.00;;
63902;SDS011;50072;50.678;13.938;2022-09-09T12:00:37;0.00;;;0.00;;
63902;SDS011;50072;50.678;13.938;2022-09-09T12:06:08;0.00;;;0.00;;
63902;SDS011;50072;50.678;13.938;2022-09-09T12:08:51;0.00;;;0.00;;
63902;SDS011;50072;50.678;13.938;2022-09-09T12:11:27;0.00;;;0.00;;
63902;SDS011;50072;50.678;13.938;2022-09-09T12:13:57;0.00;;;0.00;;
63902;SDS011;50072;50.678;13.938;2022-09-09T12:16:30;0.00;;;0.00;;
63902;SDS011;50072;50.678;13.938;2022-09-09T12:19:06;0.00;;;0.00;;
63902;SDS011;50072;50.678;13.938;2022-09-09T12:22:03;0.00;;;0.00;;
63902;SDS011;50072;50.678;13.938;2022-09-09T12:24:43;0.00;;;0.00;;
63902;SDS011;50072;50.678;13.938;2022-09-09T12:28:04;0.00;;;0.00;;
63902;SDS011;50072;50.678;13.938;2022-09-09T12:30:27;0.00;;;0.00;;
63902;SDS011;50072;50.678;13.938;2022-09-09T12:33:33;0.00;;;0.00;;
63902;SDS011;50072;50.678;13.938;2022-09-09T12:35:51;0.00;;;0.00;;
63902;SDS011;50072;50.678;13.938;2022-09-09T12:38:23;0.00;;;0.00;;
63902;SDS011;50072;50.678;13.938;2022-09-09T12:40:55;0.00;;;0.00;;
63902;SDS011;50072;50.678;13.938;2022-09-09T12:43:23;0.00;;;0.00;;
63902;SDS011;50072;50.678;13.938;2022-09-09T12:45:51;0.00;;;0.00;;
63902;SDS011;50072;50.678;13.938;2022-09-09T12:48:26;0.00;;;0.00;;
63902;SDS011;50072;50.678;13.938;2022-09-09T12:50:58;0.00;;;0.00;;
63902;SDS011;50072;50.678;13.938;2022-09-09T12:53:46;0.00;;;0.00;;
63902;SDS011;50072;50.678;13.938;2022-09-09T12:56:18;0.00;;;0.00;;
63902;SDS011;50072;50.678;13.938;2022-09-09T12:58:46;0.00;;;0.00;;
63902;SDS011;50072;50.678;13.938;2022-09-09T13:03:48;0.00;;;0.00;;
63902;SDS011;50072;50.678;13.938;2022-09-09T13:06:19;0.00;;;0.00;;
63902;SDS011;50072;50.678;13.938;2022-09-09T13:08:48;0.00;;;0.00;;
63902;SDS011;50072;50.678;13.938;2022-09-09T13:11:26;0.00;;;0.00;;
63902;SDS011;50072;50.678;13.938;2022-09-09T13:14:01;0.00;;;0.00;;
63902;SDS011;50072;50.678;13.938;2022-09-09T13:16:31;0.00;;;0.00;;
63902;SDS011;50072;50.678;13.938;2022-09-09T13:19:00;0.00;;;0.00;;
63902;SDS011;50072;50.678;13.938;2022-09-09T13:21:40;0.00;;;0.00;;
63902;SDS011;50072;50.678;13.938;2022-09-09T13:24:06;0.00;;;0.00;;
63902;SDS011;50072;50.678;13.938;2022-09-09T13:26:54;0.00;;;0.00;;
63902;SDS011;50072;50.678;13.938;2022-09-09T13:29:40;0.00;;;0.00;;
63902;SDS011;50072;50.678;13.938;2022-09-09T13:32:20;0.00;;;0.00;;
63902;SDS011;50072;50.678;13.938;2022-09-09T13:34:51;0.00;;;0.00;;
63902;SDS011;50072;50.678;13.938;2022-09-09T13:37:33;0.00;;;0.00;;
63902;SDS011;50072;50.678;13.938;2022-09-09T13:40:02;0.00;;;0.00;;
63902;SDS011;50072;50.678;13.938;2022-09-09T13:42:30;0.00;;;0.00;;
63902;SDS011;50072;50.678;13.938;2022-09-09T13:45:00;0.00;;;0.00;;
63902;SDS011;50072;50.678;13.938;2022-09-09T13:47:34;0.00;;;0.00;;
63902;SDS011;50072;50.678;13.938;2022-09-09T13:52:47;0.00;;;0.00;;
63902;SDS011;50072;50.678;13.938;2022-09-09T13:55:14;0.00;;;0.00;;
63902;SDS011;50072;50.678;13.938;2022-09-09T13:57:49;0.00;;;0.00;;
63902;SDS011;50072;50.678;13.938;2022-09-09T14:02:46;0.00;;;0.00;;
63902;SDS011;50072;50.678;13.938;2022-09-09T14:05:13;0.00;;;0.00;;
63902;SDS011;50072;50.678;13.938;2022-09-09T14:07:40;0.00;;;0.00;;
63902;SDS011;50072;50.678;13.938;2022-09-09T14:10:07;0.00;;;0.00;;
63902;SDS011;50072;50.678;13.938;2022-09-09T14:12:33;0.00;;;0.00;;
63902;SDS011;50072;50.678;13.938;2022-09-09T14:14:59;0.00;;;0.00;;
63902;SDS011;50072;50.678;13.938;2022-09-09T14:17:25;0.00;;;0.00;;
63902;SDS011;50072;50.678;13.938;2022-09-09T14:19:55;0.00;;;0.00;;
63902;SDS011;50072;50.678;13.938;2022-09-09T14:22:22;0.00;;;0.00;;
63902;SDS011;50072;50.678;13.938;2022-09-09T14:24:48;0.00;;;0.00;;
63902;SDS011;50072;50.678;13.938;2022-09-09T14:27:14;0.00;;;0.00;;
63902;SDS011;50072;50.678;13.938;2022-09-09T14:29:40;0.00;;;0.00;;
63902;SDS011;50072;50.678;13.938;2022-09-09T14:32:06;0.00;;;0.00;;
63902;SDS011;50072;50.678;13.938;2022-09-09T14:34:31;0.00;;;0.00;;
63902;SDS011;50072;50.678;13.938;2022-09-09T14:37:00;0.00;;;0.00;;
63902;SDS011;50072;50.678;13.938;2022-09-09T14:39:26;0.00;;;0.00;;
63902;SDS011;50072;50.678;13.938;2022-09-09T14:41:52;0.00;;;0.00;;
63902;SDS011;50072;50.678;13.938;2022-09-09T14:44:18;0.00;;;0.00;;
63902;SDS011;50072;50.678;13.938;2022-09-09T14:46:44;0.00;;;0.00;;
63902;SDS011;50072;50.678;13.938;2022-09-09T14:49:10;0.00;;;0.00;;
63902;SDS011;50072;50.678;13.938;2022-09-09T14:51:37;0.00;;;0.00;;
63902;SDS011;50072;50.678;13.938;2022-09-09T14:54:03;0.00;;;0.00;;
63902;SDS011;50072;50.678;13.938;2022-09-09T14:56:30;0.00;;;0.00;;
63902;SDS011;50072;50.678;13.938;2022-09-09T14:59:00;0.00;;;0.00;;
63902;SDS011;50072;50.678;13.938;2022-09-09T15:01:26;0.00;;;0.00;;
63902;SDS011;50072;50.678;13.938;2022-09-09T15:03:54;0.00;;;0.00;;
63902;SDS011;50072;50.678;13.938;2022-09-09T15:06:25;0.00;;;0.00;;
63902;SDS011;50072;50.678;13.938;2022-09-09T15:08:53;0.00;;;0.00;;
63902;SDS011;50072;50.678;13.938;2022-09-09T15:11:19;0.00;;;0.00;;
63902;SDS011;50072;50.678;13.938;2022-09-09T15:13:46;0.00;;;0.00;;
63902;SDS011;50072;50.678;13.938;2022-09-09T15:16:15;0.00;;;0.00;;
63902;SDS011;50072;50.678;13.938;2022-09-09T15:18:43;0.00;;;0.00;;
63902;SDS011;50072;50.678;13.938;2022-09-09T15:21:11;0.00;;;0.00;;
63902;SDS011;50072;50.678;13.938;2022-09-09T15:23:48;0.00;;;0.00;;
63902;SDS011;50072;50.678;13.938;2022-09-09T15:26:14;0.00;;;0.00;;
63902;SDS011;50072;50.678;13.938;2022-09-09T15:28:41;0.00;;;0.00;;
63902;SDS011;50072;50.678;13.938;2022-09-09T15:31:12;0.00;;;0.00;;
63902;SDS011;50072;50.678;13.938;2022-09-09T15:33:46;0.00;;;0.00;;
63902;SDS011;50072;50.678;13.938;2022-09-09T15:36:32;0.00;;;0.00;;
63902;SDS011;50072;50.678;13.938;2022-09-09T15:39:03;0.00;;;0.00;;
63902;SDS011;50072;50.678;13.938;2022-09-09T15:41:31;0.00;;;0.00;;
63902;SDS011;50072;50.678;13.938;2022-09-09T15:43:57;0.00;;;0.00;;
63902;SDS011;50072;50.678;13.938;2022-09-09T15:46:24;0.00;;;0.00;;
63902;SDS011;50072;50.678;13.938;2022-09-09T15:48:54;0.00;;;0.00;;
63902;SDS011;50072;50.678;13.938;2022-09-09T15:51:25;0.00;;;0.00;;
63902;SDS011;50072;50.678;13.938;2022-09-09T15:53:54;0.00;;;0.00;;
63902;SDS011;50072;50.678;13.938;2022-09-09T15:56:21;0.00;;;0.00;;
63902;SDS011;50072;50.678;13.938;2022-09-09T15:58:47;0.00;;;0.00;;
63902;SDS011;50072;50.678;13.938;2022-09-09T16:01:13;0.00;;;0.00;;
63902;SDS011;50072;50.678;13.938;2022-09-09T16:03:41;0.00;;;0.00;;
63902;SDS011;50072;50.678;13.938;2022-09-09T16:06:08;0.00;;;0.00;;
63902;SDS011;50072;50.678;13.938;2022-09-09T16:11:22;0.00;;;0.00;;
63902;SDS011;50072;50.678;13.938;2022-09-09T16:13:52;0.00;;;0.00;;
63902;SDS011;50072;50.678;13.938;2022-09-09T16:16:20;0.00;;;0.00;;
63902;SDS011;50072;50.678;13.938;2022-09-09T16:18:49;0.00;;;0.00;;
63902;SDS011;50072;50.678;13.938;2022-09-09T16:21:27;0.00;;;0.00;;
63902;SDS011;50072;50.678;13.938;2022-09-09T16:23:55;0.00;;;0.00;;
63902;SDS011;50072;50.678;13.938;2022-09-09T16:26:22;0.00;;;0.00;;
63902;SDS011;50072;50.678;13.938;2022-09-09T16:28:49;0.00;;;0.00;;
63902;SDS011;50072;50.678;13.938;2022-09-09T16:31:20;0.00;;;0.00;;
63902;SDS011;50072;50.678;13.938;2022-09-09T16:33:47;0.00;;;0.00;;
63902;SDS011;50072;50.678;13.938;2022-09-09T16:36:20;0.00;;;0.00;;
63902;SDS011;50072;50.678;13.938;2022-09-09T16:38:51;0.00;;;0.00;;
63902;SDS011;50072;50.678;13.938;2022-09-09T16:41:19;0.00;;;0.00;;
63902;SDS011;50072;50.678;13.938;2022-09-09T16:43:45;0.00;;;0.00;;
63902;SDS011;50072;50.678;13.938;2022-09-09T16:46:15;0.00;;;0.00;;
63902;SDS011;50072;50.678;13.938;2022-09-09T16:48:44;0.00;;;0.00;;
63902;SDS011;50072;50.678;13.938;2022-09-09T16:51:13;0.00;;;0.00;;
63902;SDS011;50072;50.678;13.938;2022-09-09T16:53:41;0.00;;;0.00;;
63902;SDS011;50072;50.678;13.938;2022-09-09T16:56:14;0.08;;;0.08;;
63902;SDS011;50072;50.678;13.938;2022-09-09T16:58:42;0.00;;;0.00;;
63902;SDS011;50072;50.678;13.938;2022-09-09T17:01:08;0.00;;;0.00;;
63902;SDS011;50072;50.678;13.938;2022-09-09T17:03:36;0.00;;;0.00;;
63902;SDS011;50072;50.678;13.938;2022-09-09T17:06:02;0.00;;;0.00;;
63902;SDS011;50072;50.678;13.938;2022-09-09T17:08:33;0.00;;;0.00;;
63902;SDS011;50072;50.678;13.938;2022-09-09T17:10:59;0.00;;;0.00;;
63902;SDS011;50072;50.678;13.938;2022-09-09T17:13:25;0.00;;;0.00;;
63902;SDS011;50072;50.678;13.938;2022-09-09T17:15:52;0.00;;;0.00;;
63902;SDS011;50072;50.678;13.938;2022-09-09T17:18:19;0.00;;;0.00;;
63902;SDS011;50072;50.678;13.938;2022-09-09T17:20:46;0.00;;;0.00;;
63902;SDS011;50072;50.678;13.938;2022-09-09T17:23:12;0.00;;;0.00;;
63902;SDS011;50072;50.678;13.938;2022-09-09T17:25:41;0.00;;;0.00;;
63902;SDS011;50072;50.678;13.938;2022-09-09T17:28:07;0.00;;;0.00;;
63902;SDS011;50072;50.678;13.938;2022-09-09T17:30:33;0.00;;;0.00;;
63902;SDS011;50072;50.678;13.938;2022-09-09T17:33:01;0.00;;;0.00;;
63902;SDS011;50072;50.678;13.938;2022-09-09T17:35:32;0.00;;;0.00;;
63902;SDS011;50072;50.678;13.938;2022-09-09T17:37:58;0.00;;;0.00;;
63902;SDS011;50072;50.678;13.938;2022-09-09T17:40:24;0.00;;;0.00;;
63902;SDS011;50072;50.678;13.938;2022-09-09T17:42:50;0.00;;;0.00;;
63902;SDS011;50072;50.678;13.938;2022-09-09T17:45:15;0.00;;;0.00;;
63902;SDS011;50072;50.678;13.938;2022-09-09T17:47:41;0.00;;;0.00;;
63902;SDS011;50072;50.678;13.938;2022-09-09T17:50:08;0.10;;;0.10;;
63902;SDS011;50072;50.678;13.938;2022-09-09T17:52:36;0.00;;;0.00;;
63902;SDS011;50072;50.678;13.938;2022-09-09T17:55:02;0.00;;;0.00;;
63902;SDS011;50072;50.678;13.938;2022-09-09T17:57:29;0.40;;;0.40;;
63902;SDS011;50072;50.678;13.938;2022-09-09T17:59:55;0.00;;;0.00;;
63902;SDS011;50072;50.678;13.938;2022-09-09T18:02:20;0.00;;;0.00;;
63902;SDS011;50072;50.678;13.938;2022-09-09T18:04:46;0.00;;;0.00;;
63902;SDS011;50072;50.678;13.938;2022-09-09T18:07:12;0.00;;;0.00;;
63902;SDS011;50072;50.678;13.938;2022-09-09T18:09:38;0.00;;;0.00;;
63902;SDS011;50072;50.678;13.938;2022-09-09T18:12:04;0.00;;;0.00;;
63902;SDS011;50072;50.678;13.938;2022-09-09T18:14:30;0.00;;;0.00;;
63902;SDS011;50072;50.678;13.938;2022-09-09T18:16:58;0.00;;;0.00;;
63902;SDS011;50072;50.678;13.938;2022-09-09T18:19:25;0.00;;;0.00;;
63902;SDS011;50072;50.678;13.938;2022-09-09T18:21:53;0.10;;;0.10;;
63902;SDS011;50072;50.678;13.938;2022-09-09T18:24:19;0.10;;;0.10;;
63902;SDS011;50072;50.678;13.938;2022-09-09T18:26:47;0.00;;;0.00;;
63902;SDS011;50072;50.678;13.938;2022-09-09T18:29:15;0.00;;;0.00;;
63902;SDS011;50072;50.678;13.938;2022-09-09T18:31:44;0.00;;;0.00;;
63902;SDS011;50072;50.678;13.938;2022-09-09T18:34:12;0.00;;;0.00;;
63902;SDS011;50072;50.678;13.938;2022-09-09T18:36:41;0.10;;;0.10;;
63902;SDS011;50072;50.678;13.938;2022-09-09T18:39:10;0.00;;;0.00;;
63902;SDS011;50072;50.678;13.938;2022-09-09T18:41:38;0.00;;;0.00;;